createdAt,value
2018-03-02T00:03:27.693Z,999.12
2018-03-02T00:18:35.788Z,998.84
2018-03-02T00:23:33.196Z,998.78
2018-03-02T00:33:37.787Z,998.79
2018-03-02T00:38:36.726Z,998.64
2018-03-02T00:43:36.009Z,998.68
2018-03-02T00:48:36.126Z,998.76
2018-03-02T00:53:36.083Z,998.57
2018-03-02T00:58:36.714Z,998.71
2018-03-02T01:03:38.867Z,998.49
2018-03-02T01:08:35.450Z,998.44
2018-03-02T01:13:35.609Z,998.57
2018-03-02T01:18:35.332Z,998.42
2018-03-02T01:23:30.945Z,998.38
2018-03-02T01:28:30.562Z,998.35
2018-03-02T01:33:31.553Z,998.39
2018-03-02T01:38:31.354Z,998.20
2018-03-02T01:43:29.705Z,998.20
2018-03-02T01:53:30.653Z,998.09
2018-03-02T02:08:36.383Z,997.85
2018-03-02T02:13:36.137Z,997.98
2018-03-02T02:23:36.038Z,997.79
2018-03-02T02:28:33.273Z,997.70
2018-03-02T02:33:31.087Z,997.71
2018-03-02T02:38:27.223Z,997.64
2018-03-02T02:43:28.677Z,997.61
2018-03-02T02:48:27.448Z,997.58
2018-03-02T02:58:31.053Z,997.61
2018-03-02T03:03:27.324Z,997.54
2018-03-02T03:08:28.588Z,997.59
2018-03-02T03:13:28.935Z,997.59
2018-03-02T03:18:28.531Z,997.50
2018-03-02T03:23:29.449Z,997.39
2018-03-02T03:28:28.495Z,997.39
2018-03-02T03:33:27.750Z,997.28
2018-03-02T03:38:28.319Z,997.23
2018-03-02T03:43:27.494Z,997.14
2018-03-02T03:48:27.414Z,997.13
2018-03-02T03:53:27.029Z,997.00
2018-03-02T03:58:26.764Z,996.96
2018-03-02T04:03:27.546Z,997.09
2018-03-02T04:08:27.398Z,996.97
2018-03-02T04:13:26.201Z,996.88
2018-03-02T04:18:26.062Z,996.89
2018-03-02T04:23:26.912Z,996.91
2018-03-02T04:28:23.392Z,996.94
2018-03-02T04:33:23.545Z,996.87
2018-03-02T04:38:22.643Z,996.86
2018-03-02T04:43:26.287Z,996.85
2018-03-02T04:48:26.367Z,996.88
2018-03-02T04:53:25.692Z,996.89
2018-03-02T04:58:21.237Z,996.82
2018-03-02T05:03:18.671Z,996.70
2018-03-02T05:08:19.436Z,996.77
2018-03-02T05:13:19.189Z,996.73
2018-03-02T05:23:19.851Z,996.68
2018-03-02T05:28:18.807Z,996.65
2018-03-02T05:33:16.740Z,996.45
2018-03-02T05:38:18.244Z,996.50
2018-03-02T05:43:17.904Z,996.51
2018-03-02T05:48:18.003Z,996.28
2018-03-02T05:53:19.928Z,996.24
2018-03-02T06:03:24.036Z,996.28
2018-03-02T06:08:18.852Z,996.30
2018-03-02T06:13:21.656Z,996.28
2018-03-02T06:18:20.825Z,996.18
2018-03-02T06:23:20.296Z,996.31
2018-03-02T06:28:20.081Z,996.41
2018-03-02T06:33:20.154Z,996.21
2018-03-02T06:38:16.628Z,996.32
2018-03-02T06:43:17.506Z,996.19
2018-03-02T06:48:17.834Z,996.03
2018-03-02T06:53:16.854Z,996.18
2018-03-02T06:58:12.125Z,996.19
2018-03-02T07:03:15.350Z,996.14
2018-03-02T07:08:10.183Z,995.98
2018-03-02T07:13:10.469Z,996.03
2018-03-02T07:18:08.794Z,995.90
2018-03-02T07:23:08.524Z,995.84
2018-03-02T07:28:08.015Z,995.82
2018-03-02T07:33:03.145Z,995.82
2018-03-02T07:38:03.490Z,995.82
2018-03-02T07:43:02.015Z,995.74
2018-03-02T07:47:56.919Z,995.75
2018-03-02T07:58:00.892Z,995.69
2018-03-02T08:02:56.432Z,995.60
2018-03-02T08:07:57.751Z,995.60
2018-03-02T08:12:59.123Z,995.69
2018-03-02T08:17:58.541Z,995.51
2018-03-02T08:22:56.967Z,995.65
2018-03-02T08:27:57.960Z,995.43
2018-03-02T08:32:56.397Z,995.35
2018-03-02T08:37:55.109Z,995.41
2018-03-02T08:42:50.996Z,995.47
2018-03-02T08:47:51.130Z,995.57
2018-03-02T08:52:50.553Z,995.41
2018-03-02T08:57:49.062Z,995.32
2018-03-02T09:02:47.690Z,995.33
2018-03-02T09:07:44.871Z,995.42
2018-03-02T09:12:43.868Z,995.24
2018-03-02T09:17:40.815Z,995.26
2018-03-02T09:22:41.259Z,995.23
2018-03-02T09:27:35.662Z,995.11
2018-03-02T09:32:35.412Z,995.13
2018-03-02T09:37:35.163Z,994.84
2018-03-02T09:42:29.595Z,994.86
2018-03-02T09:47:30.384Z,994.89
2018-03-02T09:52:25.454Z,994.95
2018-03-02T09:57:25.441Z,994.84
2018-03-02T10:02:21.576Z,994.79
2018-03-02T10:07:17.105Z,994.78
2018-03-02T10:12:13.475Z,994.91
2018-03-02T10:17:10.144Z,994.83
2018-03-02T10:22:06.357Z,994.72
2018-03-02T10:27:01.917Z,994.63
2018-03-02T10:32:01.905Z,994.54
2018-03-02T10:37:00.462Z,994.56
2018-03-02T10:42:00.065Z,994.41
2018-03-02T10:46:58.371Z,994.47
2018-03-02T10:51:57.401Z,994.46
2018-03-02T10:56:56.493Z,994.43
2018-03-02T11:01:56.471Z,994.59
2018-03-02T11:06:51.227Z,994.36
2018-03-02T11:11:53.261Z,994.50
2018-03-02T11:16:52.124Z,994.48
2018-03-02T11:21:51.229Z,994.41
2018-03-02T11:26:46.476Z,994.20
2018-03-02T11:31:43.651Z,994.03
2018-03-02T11:36:40.237Z,994.09
2018-03-02T11:41:40.948Z,994.05
2018-03-02T11:46:39.551Z,994.01
2018-03-02T11:51:40.921Z,994.03
2018-03-02T11:56:35.195Z,993.89
2018-03-02T12:01:35.286Z,994.12
2018-03-02T12:06:33.622Z,993.98
2018-03-02T12:11:31.613Z,993.98
2018-03-02T12:16:30.292Z,993.77
2018-03-02T12:21:28.907Z,993.94
2018-03-02T12:26:28.516Z,993.79
2018-03-02T12:31:23.347Z,993.69
2018-03-02T12:36:23.908Z,993.77
2018-03-02T12:41:25.451Z,993.62
2018-03-02T12:46:20.376Z,993.53
2018-03-02T12:51:19.900Z,993.67
2018-03-02T12:56:16.998Z,993.46
2018-03-02T13:01:16.167Z,993.59
2018-03-02T13:06:16.632Z,993.60
2018-03-02T13:11:15.986Z,993.58
2018-03-02T13:16:15.961Z,993.48
2018-03-02T13:21:16.879Z,993.39
2018-03-02T13:26:11.429Z,993.56
2018-03-02T13:31:11.895Z,993.75
2018-03-02T13:36:07.534Z,993.63
2018-03-02T13:41:03.973Z,993.52
2018-03-02T13:46:03.654Z,993.59
2018-03-02T13:51:03.977Z,993.65
2018-03-02T13:56:02.441Z,993.73
2018-03-02T14:00:58.250Z,993.68
2018-03-02T14:05:58.702Z,993.66
2018-03-02T14:10:54.451Z,993.53
2018-03-02T14:15:54.812Z,993.61
2018-03-02T14:20:54.616Z,993.51
2018-03-02T14:25:53.560Z,993.54
2018-03-02T14:30:53.282Z,993.46
2018-03-02T14:35:52.095Z,993.39
2018-03-02T14:40:48.064Z,993.31
2018-03-02T14:45:48.669Z,993.25
2018-03-02T14:50:46.825Z,993.30
2018-03-02T14:55:42.320Z,993.18
2018-03-02T15:00:40.094Z,993.04
2018-03-02T15:05:39.057Z,992.92
2018-03-02T15:10:34.342Z,993.00
2018-03-02T15:15:30.945Z,993.04
2018-03-02T15:20:27.515Z,992.90
2018-03-02T15:25:28.854Z,992.94
2018-03-02T15:30:28.221Z,992.98
2018-03-02T15:35:29.300Z,993.08
2018-03-02T15:45:33.957Z,993.01
2018-03-02T15:50:29.801Z,993.03
2018-03-02T15:55:33.667Z,993.10
2018-03-02T16:00:35.568Z,993.14
2018-03-02T16:05:34.185Z,993.08
2018-03-02T16:10:33.739Z,993.08
2018-03-02T16:15:32.265Z,992.89
2018-03-02T16:20:33.006Z,992.98
2018-03-02T16:25:33.421Z,993.01
2018-03-02T16:30:32.737Z,993.06
2018-03-02T16:35:33.299Z,993.07
2018-03-02T16:40:32.497Z,993.15
2018-03-02T16:45:29.423Z,993.37
2018-03-02T16:50:28.227Z,993.21
2018-03-02T16:55:24.705Z,993.15
2018-03-02T17:00:24.970Z,993.39
2018-03-02T17:05:23.399Z,993.37
2018-03-02T17:10:22.912Z,993.37
2018-03-02T17:15:21.924Z,993.42
2018-03-02T17:20:21.933Z,993.38
2018-03-02T17:25:23.029Z,993.43
2018-03-02T17:30:21.863Z,993.44
2018-03-02T17:35:22.464Z,993.65
2018-03-02T17:40:22.381Z,993.50
2018-03-02T17:45:21.778Z,993.46
2018-03-02T17:50:21.268Z,993.49
2018-03-02T17:55:19.863Z,993.51
2018-03-02T18:00:15.572Z,993.55
2018-03-02T18:05:16.375Z,993.70
2018-03-02T18:10:11.467Z,993.73
2018-03-02T18:20:12.764Z,993.82
2018-03-02T18:30:12.907Z,993.96
2018-03-02T18:35:11.984Z,993.97
2018-03-02T18:40:13.257Z,993.93
2018-03-02T18:45:11.901Z,994.06
2018-03-02T18:55:14.800Z,994.15
2018-03-02T19:00:14.802Z,994.22
2018-03-02T19:05:14.945Z,994.23
2018-03-02T19:10:14.778Z,994.20
2018-03-02T19:15:09.390Z,994.28
2018-03-02T19:25:12.517Z,994.08
2018-03-02T19:30:12.754Z,994.14
2018-03-02T19:35:11.265Z,994.05
2018-03-02T19:40:11.178Z,994.23
2018-03-02T19:45:10.803Z,994.16
2018-03-02T19:50:09.910Z,994.14
2018-03-02T19:55:07.729Z,994.16
2018-03-02T20:00:09.105Z,994.12
2018-03-02T20:10:08.794Z,994.21
2018-03-02T20:15:09.922Z,994.31
2018-03-02T20:20:09.713Z,994.31
2018-03-02T20:30:13.706Z,994.34
2018-03-02T20:35:15.376Z,994.31
2018-03-02T20:45:15.755Z,994.27
2018-03-02T20:50:17.621Z,994.28
2018-03-02T20:55:14.234Z,994.18
2018-03-02T21:05:17.350Z,994.17
2018-03-02T21:10:16.630Z,994.24
2018-03-02T21:15:16.557Z,994.30
2018-03-02T21:20:15.987Z,994.27
2018-03-02T21:25:13.784Z,994.23
2018-03-02T21:30:15.219Z,994.20
2018-03-02T21:35:15.317Z,994.07
2018-03-02T21:40:12.094Z,994.15
2018-03-02T21:50:15.468Z,994.23
2018-03-02T21:55:14.813Z,994.21
2018-03-02T22:00:13.692Z,994.11
2018-03-02T22:05:13.894Z,994.18
2018-03-02T22:15:16.053Z,994.24
2018-03-02T22:20:16.040Z,994.09
2018-03-02T22:25:12.459Z,994.03
2018-03-02T22:30:13.366Z,994.12
2018-03-02T22:35:13.137Z,994.10
2018-03-02T22:40:11.869Z,994.09
2018-03-02T22:45:07.769Z,994.08
2018-03-02T22:50:08.282Z,994.03
2018-03-02T23:00:13.038Z,994.04
2018-03-02T23:05:13.920Z,994.10
2018-03-02T23:10:13.251Z,994.08
2018-03-02T23:15:09.942Z,994.10
2018-03-02T23:20:12.155Z,994.07
2018-03-02T23:25:08.176Z,994.00
2018-03-02T23:30:08.672Z,993.97
2018-03-02T23:35:07.266Z,994.01
2018-03-02T23:40:04.012Z,994.07
2018-03-02T23:45:05.223Z,993.98
2018-03-02T23:50:00.707Z,993.94
2018-03-02T23:55:00.999Z,993.99
